Back to Top

Language: 

My Weather Underground Personal Weather Station Historical Data with Graphs...

Delerius Weather Station Historical Data
Daily Summary for March 21, 2017 Units:  Both    English   Metric
« Previous Day
Next Day »
Daily Weekly Monthly Yearly Custom
  High: Low: Average:
Temperature: 49.5 °F /  9.7 °C 36.1 °F /  2.3 °C 42.2 °F /  5.7 °C
Dew Point: 37.6 °F /  3.1 °C 28.1 °F /  -2.2 °C 33.3 °F /  0.7 °C
Humidity: 90 % 44 % 72 %
Wind Speed: 21.0 mph /  33.8 km/h - 12.7 mph /  20.4 km/h
Wind Gust: 35.0 mph /  56.3 km/h - -
Wind:- - WSW
Pressure: 29.71 in /  1006 hPa 29.52 in /  999.5 hPa -
Precipitation: 0.04 in /  1.02 mm    
Historical Graphs
 
 
Tabular Data for March 21, 2017
Time Temperature Dew Point Pressure Wind Wind Speed Wind Gust Humidity Rainfall Rate (Hourly) solar Conditions
00:02 39.6 °F /  4.2 °C 36.3 °F /  2.4 °C 29.53 in /  999.9 hPa WSW 11.0 mph /  17.7 km/h 21.0 mph /  33.8 km/h 88 % 0.02 in /  0.51 mm 0 W/m2
00:07 39.4 °F /  4.1 °C 36.4 °F /  2.4 °C 29.53 in /  999.9 hPa WSW 11.0 mph /  17.7 km/h 21.0 mph /  33.8 km/h 89 % 0.02 in /  0.51 mm 0 W/m2
00:12 39.4 °F /  4.1 °C 36.4 °F /  2.4 °C 29.52 in /  999.5 hPa WSW 11.0 mph /  17.7 km/h 21.0 mph /  33.8 km/h 89 % 0.02 in /  0.51 mm 0 W/m2
00:17 39.4 °F /  4.1 °C 36.4 °F /  2.4 °C 29.52 in /  999.5 hPa WSW 11.0 mph /  17.7 km/h 19.0 mph /  30.6 km/h 89 % 0.02 in /  0.51 mm 0 W/m2
00:22 39.6 °F /  4.2 °C 36.6 °F /  2.6 °C 29.52 in /  999.5 hPa WSW 12.0 mph /  19.3 km/h 23.0 mph /  37 km/h 89 % 0.02 in /  0.51 mm 0 W/m2
00:27 39.7 °F /  4.3 °C 36.5 °F /  2.5 °C 29.52 in /  999.5 hPa WSW 13.0 mph /  20.9 km/h 23.0 mph /  37 km/h 88 % 0.02 in /  0.51 mm 0 W/m2
00:33 39.7 °F /  4.3 °C 36.5 °F /  2.5 °C 29.53 in /  999.9 hPa WSW 13.0 mph /  20.9 km/h 21.0 mph /  33.8 km/h 88 % 0.01 in /  0.25 mm 0 W/m2
00:38 39.9 °F /  4.4 °C 36.7 °F /  2.6 °C 29.52 in /  999.5 hPa WSW 12.0 mph /  19.3 km/h 21.0 mph /  33.8 km/h 88 % 0.00 in /  0 mm 0 W/m2
00:43 40.1 °F /  4.5 °C 36.8 °F /  2.7 °C 29.53 in /  999.9 hPa WSW 12.0 mph /  19.3 km/h 26.0 mph /  41.8 km/h 88 % 0.00 in /  0 mm 0 W/m2
00:48 40.3 °F /  4.6 °C 36.7 °F /  2.6 °C 29.53 in /  999.9 hPa WSW 14.0 mph /  22.5 km/h 26.0 mph /  41.8 km/h 87 % 0.00 in /  0 mm 0 W/m2
00:53 40.3 °F /  4.6 °C 36.4 °F /  2.4 °C 29.53 in /  999.9 hPa WSW 14.0 mph /  22.5 km/h 25.0 mph /  40.2 km/h 86 % 0.00 in /  0 mm 0 W/m2
00:58 40.3 °F /  4.6 °C 36.4 °F /  2.4 °C 29.53 in /  999.9 hPa WSW 13.0 mph /  20.9 km/h 25.0 mph /  40.2 km/h 86 % 0.00 in /  0 mm 0 W/m2
01:03 40.3 °F /  4.6 °C 36.4 °F /  2.4 °C 29.53 in /  999.9 hPa West 13.0 mph /  20.9 km/h 24.0 mph /  38.6 km/h 86 % 0.00 in /  0 mm 0 W/m2
01:08 40.3 °F /  4.6 °C 36.1 °F /  2.3 °C 29.53 in /  999.9 hPa WSW 14.0 mph /  22.5 km/h 24.0 mph /  38.6 km/h 85 % 0.00 in /  0 mm 0 W/m2
01:13 40.5 °F /  4.7 °C 36.3 °F /  2.4 °C 29.53 in /  999.9 hPa West 14.0 mph /  22.5 km/h 22.0 mph /  35.4 km/h 85 % 0.00 in /  0 mm 0 W/m2
01:18 40.5 °F /  4.7 °C 36.3 °F /  2.4 °C 29.53 in /  999.9 hPa West 15.0 mph /  24.1 km/h 28.0 mph /  45.1 km/h 85 % 0.00 in /  0 mm 0 W/m2
01:23 40.6 °F /  4.8 °C 36.5 °F /  2.5 °C 29.54 in /  1000.2 hPa West 17.0 mph /  27.4 km/h 30.0 mph /  48.3 km/h 85 % 0.00 in /  0 mm 0 W/m2
01:28 40.5 °F /  4.7 °C 36.9 °F /  2.7 °C 29.54 in /  1000.2 hPa West 15.0 mph /  24.1 km/h 30.0 mph /  48.3 km/h 87 % 0.01 in /  0.25 mm 0 W/m2
01:33 39.9 °F /  4.4 °C 36.7 °F /  2.6 °C 29.54 in /  1000.2 hPa WNW 14.0 mph /  22.5 km/h 26.0 mph /  41.8 km/h 88 % 0.01 in /  0.25 mm 0 W/m2
01:38 39.6 °F /  4.2 °C 36.3 °F /  2.4 °C 29.54 in /  1000.2 hPa West 13.0 mph /  20.9 km/h 26.0 mph /  41.8 km/h 88 % 0.01 in /  0.25 mm 0 W/m2
01:43 39.6 °F /  4.2 °C 36.3 °F /  2.4 °C 29.53 in /  999.9 hPa West 14.0 mph /  22.5 km/h 25.0 mph /  40.2 km/h 88 % 0.01 in /  0.25 mm 0 W/m2
01:48 39.6 °F /  4.2 °C 36.3 °F /  2.4 °C 29.54 in /  1000.2 hPa West 15.0 mph /  24.1 km/h 30.0 mph /  48.3 km/h 88 % 0.01 in /  0.25 mm 0 W/m2
01:53 39.6 °F /  4.2 °C 36.0 °F /  2.2 °C 29.54 in /  1000.2 hPa West 15.0 mph /  24.1 km/h 30.0 mph /  48.3 km/h 87 % 0.01 in /  0.25 mm 0 W/m2
01:58 39.6 °F /  4.2 °C 36.0 °F /  2.2 °C 29.54 in /  1000.2 hPa West 14.0 mph /  22.5 km/h 26.0 mph /  41.8 km/h 87 % 0.01 in /  0.25 mm 0 W/m2
02:03 39.6 °F /  4.2 °C 36.3 °F /  2.4 °C 29.55 in /  1000.6 hPa West 12.0 mph /  19.3 km/h 22.0 mph /  35.4 km/h 88 % 0.01 in /  0.25 mm 0 W/m2
02:08 39.4 °F /  4.1 °C 36.4 °F /  2.4 °C 29.55 in /  1000.6 hPa WNW 13.0 mph /  20.9 km/h 26.0 mph /  41.8 km/h 89 % 0.02 in /  0.51 mm 0 W/m2
02:13 39.0 °F /  3.9 °C 36.1 °F /  2.3 °C 29.55 in /  1000.6 hPa WNW 16.0 mph /  25.7 km/h 29.0 mph /  46.7 km/h 89 % 0.02 in /  0.51 mm 0 W/m2
02:18 38.8 °F /  3.8 °C 36.2 °F /  2.3 °C 29.55 in /  1000.6 hPa West 14.0 mph /  22.5 km/h 29.0 mph /  46.7 km/h 90 % 0.02 in /  0.51 mm 0 W/m2
02:23 38.8 °F /  3.8 °C 36.2 °F /  2.3 °C 29.55 in /  1000.6 hPa West 12.0 mph /  19.3 km/h 22.0 mph /  35.4 km/h 90 % 0.02 in /  0.51 mm 0 W/m2
02:28 39.0 °F /  3.9 °C 36.1 °F /  2.3 °C 29.55 in /  1000.6 hPa West 13.0 mph /  20.9 km/h 23.0 mph /  37 km/h 89 % 0.02 in /  0.51 mm 0 W/m2
02:33 39.2 °F /  4 °C 35.9 °F /  2.2 °C 29.55 in /  1000.6 hPa West 14.0 mph /  22.5 km/h 26.0 mph /  41.8 km/h 88 % 0.02 in /  0.51 mm 0 W/m2
02:38 39.2 °F /  4 °C 35.9 °F /  2.2 °C 29.55 in /  1000.6 hPa West 14.0 mph /  22.5 km/h 26.0 mph /  41.8 km/h 88 % 0.02 in /  0.51 mm 0 W/m2
02:43 39.0 °F /  3.9 °C 35.5 °F /  1.9 °C 29.55 in /  1000.6 hPa West 14.0 mph /  22.5 km/h 26.0 mph /  41.8 km/h 87 % 0.02 in /  0.51 mm 0 W/m2
02:48 39.2 °F /  4 °C 35.4 °F /  1.9 °C 29.55 in /  1000.6 hPa West 15.0 mph /  24.1 km/h 26.0 mph /  41.8 km/h 86 % 0.02 in /  0.51 mm 0 W/m2
02:53 39.4 °F /  4.1 °C 35.5 °F /  1.9 °C 29.55 in /  1000.6 hPa West 16.0 mph /  25.7 km/h 26.0 mph /  41.8 km/h 86 % 0.02 in /  0.51 mm 0 W/m2
02:58 39.4 °F /  4.1 °C 35.2 °F /  1.8 °C 29.55 in /  1000.6 hPa West 14.0 mph /  22.5 km/h 26.0 mph /  41.8 km/h 85 % 0.02 in /  0.51 mm 0 W/m2
03:03 39.2 °F /  4 °C 35.1 °F /  1.7 °C 29.56 in /  1000.9 hPa West 15.0 mph /  24.1 km/h 24.0 mph /  38.6 km/h 85 % 0.02 in /  0.51 mm 0 W/m2
03:08 39.2 °F /  4 °C 34.8 °F /  1.6 °C 29.55 in /  1000.6 hPa West 16.0 mph /  25.7 km/h 25.0 mph /  40.2 km/h 84 % 0.01 in /  0.25 mm 0 W/m2
03:13 39.0 °F /  3.9 °C 34.6 °F /  1.4 °C 29.56 in /  1000.9 hPa West 15.0 mph /  24.1 km/h 25.0 mph /  40.2 km/h 84 % 0.00 in /  0 mm 0 W/m2
03:18 39.0 °F /  3.9 °C 34.3 °F /  1.3 °C 29.56 in /  1000.9 hPa West 15.0 mph /  24.1 km/h 27.0 mph /  43.5 km/h 83 % 0.00 in /  0 mm 0 W/m2
03:23 39.0 °F /  3.9 °C 34.0 °F /  1.1 °C 29.56 in /  1000.9 hPa West 16.0 mph /  25.7 km/h 28.0 mph /  45.1 km/h 82 % 0.00 in /  0 mm 0 W/m2
03:28 39.0 °F /  3.9 °C 34.0 °F /  1.1 °C 29.57 in /  1001.2 hPa West 15.0 mph /  24.1 km/h 28.0 mph /  45.1 km/h 82 % 0.00 in /  0 mm 0 W/m2
03:33 39.0 °F /  3.9 °C 34.3 °F /  1.3 °C 29.57 in /  1001.2 hPa West 14.0 mph /  22.5 km/h 23.0 mph /  37 km/h 83 % 0.00 in /  0 mm 0 W/m2
03:38 38.8 °F /  3.8 °C 34.1 °F /  1.2 °C 29.57 in /  1001.2 hPa West 15.0 mph /  24.1 km/h 26.0 mph /  41.8 km/h 83 % 0.00 in /  0 mm 0 W/m2
03:43 38.7 °F /  3.7 °C 34.2 °F /  1.2 °C 29.57 in /  1001.2 hPa West 14.0 mph /  22.5 km/h 26.0 mph /  41.8 km/h 84 % 0.00 in /  0 mm 0 W/m2
03:48 38.1 °F /  3.4 °C 34.0 °F /  1.1 °C 29.57 in /  1001.2 hPa West 11.0 mph /  17.7 km/h 19.0 mph /  30.6 km/h 85 % 0.00 in /  0 mm 0 W/m2
03:53 37.9 °F /  3.3 °C 33.8 °F /  1 °C 29.57 in /  1001.2 hPa West 10.0 mph /  16.1 km/h 19.0 mph /  30.6 km/h 85 % 0.00 in /  0 mm 0 W/m2
03:58 37.9 °F /  3.3 °C 33.8 °F /  1 °C 29.57 in /  1001.2 hPa West 10.0 mph /  16.1 km/h 19.0 mph /  30.6 km/h 85 % 0.00 in /  0 mm 0 W/m2
04:03 37.8 °F /  3.2 °C 33.7 °F /  0.9 °C 29.57 in /  1001.2 hPa West 10.0 mph /  16.1 km/h 21.0 mph /  33.8 km/h 85 % 0.00 in /  0 mm 0 W/m2
04:08 37.8 °F /  3.2 °C 33.7 °F /  0.9 °C 29.57 in /  1001.2 hPa West 10.0 mph /  16.1 km/h 21.0 mph /  33.8 km/h 85 % 0.00 in /  0 mm 0 W/m2
04:13 37.9 °F /  3.3 °C 33.8 °F /  1 °C 29.58 in /  1001.6 hPa West 11.0 mph /  17.7 km/h 21.0 mph /  33.8 km/h 85 % 0.00 in /  0 mm 0 W/m2
04:18 37.9 °F /  3.3 °C 33.5 °F /  0.8 °C 29.58 in /  1001.6 hPa West 11.0 mph /  17.7 km/h 21.0 mph /  33.8 km/h 84 % 0.00 in /  0 mm 0 W/m2
04:23 37.9 °F /  3.3 °C 33.5 °F /  0.8 °C 29.58 in /  1001.6 hPa West 13.0 mph /  20.9 km/h 29.0 mph /  46.7 km/h 84 % 0.00 in /  0 mm 0 W/m2
04:28 38.1 °F /  3.4 °C 33.7 °F /  0.9 °C 29.58 in /  1001.6 hPa WSW 16.0 mph /  25.7 km/h 29.0 mph /  46.7 km/h 84 % 0.00 in /  0 mm 0 W/m2
04:33 37.9 °F /  3.3 °C 33.8 °F /  1 °C 29.58 in /  1001.6 hPa WSW 16.0 mph /  25.7 km/h 27.0 mph /  43.5 km/h 85 % 0.00 in /  0 mm 0 W/m2
04:38 37.6 °F /  3.1 °C 33.5 °F /  0.8 °C 29.58 in /  1001.6 hPa WSW 14.0 mph /  22.5 km/h 24.0 mph /  38.6 km/h 85 % 0.00 in /  0 mm 0 W/m2
04:43 37.8 °F /  3.2 °C 33.7 °F /  0.9 °C 29.59 in /  1001.9 hPa WSW 15.0 mph /  24.1 km/h 25.0 mph /  40.2 km/h 85 % 0.00 in /  0 mm 0 W/m2
04:48 37.8 °F /  3.2 °C 33.1 °F /  0.6 °C 29.59 in /  1001.9 hPa WSW 15.0 mph /  24.1 km/h 25.0 mph /  40.2 km/h 83 % 0.00 in /  0 mm 0 W/m2
04:53 37.8 °F /  3.2 °C 33.1 °F /  0.6 °C 29.59 in /  1001.9 hPa WSW 13.0 mph /  20.9 km/h 22.0 mph /  35.4 km/h 83 % 0.00 in /  0 mm 0 W/m2
04:58 37.8 °F /  3.2 °C 32.8 °F /  0.4 °C 29.59 in /  1001.9 hPa WSW 14.0 mph /  22.5 km/h 24.0 mph /  38.6 km/h 82 % 0.00 in /  0 mm 0 W/m2
05:03 37.8 °F /  3.2 °C 32.8 °F /  0.4 °C 29.59 in /  1001.9 hPa WSW 14.0 mph /  22.5 km/h 24.0 mph /  38.6 km/h 82 % 0.00 in /  0 mm 0 W/m2
05:08 37.8 °F /  3.2 °C 32.8 °F /  0.4 °C 29.60 in /  1002.3 hPa WSW 13.0 mph /  20.9 km/h 24.0 mph /  38.6 km/h 82 % 0.00 in /  0 mm 0 W/m2
05:13 37.8 °F /  3.2 °C 33.1 °F /  0.6 °C 29.60 in /  1002.3 hPa WSW 15.0 mph /  24.1 km/h 26.0 mph /  41.8 km/h 83 % 0.00 in /  0 mm 0 W/m2
05:18 37.4 °F /  3 °C 33.0 °F /  0.6 °C 29.60 in /  1002.3 hPa WSW 14.0 mph /  22.5 km/h 26.0 mph /  41.8 km/h 84 % 0.00 in /  0 mm 0 W/m2
05:23 37.0 °F /  2.8 °C 32.7 °F /  0.4 °C 29.60 in /  1002.3 hPa WSW 13.0 mph /  20.9 km/h 22.0 mph /  35.4 km/h 84 % 0.00 in /  0 mm 0 W/m2
05:28 37.2 °F /  2.9 °C 32.5 °F /  0.3 °C 29.60 in /  1002.3 hPa WSW 13.0 mph /  20.9 km/h 23.0 mph /  37 km/h 83 % 0.00 in /  0 mm 0 W/m2
05:33 37.4 °F /  3 °C 32.4 °F /  0.2 °C 29.60 in /  1002.3 hPa WSW 15.0 mph /  24.1 km/h 23.0 mph /  37 km/h 82 % 0.00 in /  0 mm 0 W/m2
05:34 37.4 °F /  3 °C 32.4 °F /  0.2 °C 29.60 in /  1002.3 hPa WSW 15.0 mph /  24.1 km/h 23.0 mph /  37 km/h 82 % 0.00 in /  0 mm 0 W/m2
05:39 37.4 °F /  3 °C 32.4 °F /  0.2 °C 29.60 in /  1002.3 hPa WSW 14.0 mph /  22.5 km/h 21.0 mph /  33.8 km/h 82 % 0.00 in /  0 mm 0 W/m2
05:44 37.2 °F /  2.9 °C 32.2 °F /  0.1 °C 29.60 in /  1002.3 hPa WSW 12.0 mph /  19.3 km/h 21.0 mph /  33.8 km/h 82 % 0.00 in /  0 mm 0 W/m2
05:49 37.2 °F /  2.9 °C 32.2 °F /  0.1 °C 29.60 in /  1002.3 hPa WSW 12.0 mph /  19.3 km/h 21.0 mph /  33.8 km/h 82 % 0.00 in /  0 mm 0 W/m2
05:54 37.4 °F /  3 °C 32.1 °F /  0.1 °C 29.61 in /  1002.6 hPa WSW 14.0 mph /  22.5 km/h 22.0 mph /  35.4 km/h 81 % 0.00 in /  0 mm 0 W/m2
05:59 37.4 °F /  3 °C 32.4 °F /  0.2 °C 29.61 in /  1002.6 hPa WSW 17.0 mph /  27.4 km/h 25.0 mph /  40.2 km/h 82 % 0.00 in /  0 mm 0 W/m2
06:04 37.0 °F /  2.8 °C 32.4 °F /  0.2 °C 29.61 in /  1002.6 hPa WSW 17.0 mph /  27.4 km/h 25.0 mph /  40.2 km/h 83 % 0.00 in /  0 mm 7 W/m2
06:09 36.7 °F /  2.6 °C 32.6 °F /  0.3 °C 29.62 in /  1002.9 hPa WSW 15.0 mph /  24.1 km/h 24.0 mph /  38.6 km/h 85 % 0.00 in /  0 mm 5 W/m2
06:14 36.5 °F /  2.5 °C 32.7 °F /  0.4 °C 29.61 in /  1002.6 hPa WSW 13.0 mph /  20.9 km/h 24.0 mph /  38.6 km/h 86 % 0.00 in /  0 mm 7 W/m2
06:19 36.3 °F /  2.4 °C 32.5 °F /  0.3 °C 29.61 in /  1002.6 hPa WSW 12.0 mph /  19.3 km/h 23.0 mph /  37 km/h 86 % 0.00 in /  0 mm 7 W/m2
06:24 36.3 °F /  2.4 °C 32.5 °F /  0.3 °C 29.62 in /  1002.9 hPa WSW 11.0 mph /  17.7 km/h 23.0 mph /  37 km/h 86 % 0.01 in /  0.25 mm 11 W/m2
06:29 36.1 °F /  2.3 °C 32.4 °F /  0.2 °C 29.61 in /  1002.6 hPa WSW 10.0 mph /  16.1 km/h 16.0 mph /  25.7 km/h 86 % 0.01 in /  0.25 mm 14 W/m2
06:34 36.3 °F /  2.4 °C 32.5 °F /  0.3 °C 29.62 in /  1002.9 hPa WSW 11.0 mph /  17.7 km/h 21.0 mph /  33.8 km/h 86 % 0.01 in /  0.25 mm 16 W/m2
06:39 36.5 °F /  2.5 °C 32.1 °F /  0.1 °C 29.62 in /  1002.9 hPa WSW 11.0 mph /  17.7 km/h 21.0 mph /  33.8 km/h 84 % 0.01 in /  0.25 mm 21 W/m2
06:44 36.9 °F /  2.7 °C 32.2 °F /  0.1 °C 29.62 in /  1002.9 hPa WSW 13.0 mph /  20.9 km/h 22.0 mph /  35.4 km/h 83 % 0.01 in /  0.25 mm 25 W/m2
06:49 37.0 °F /  2.8 °C 32.1 °F /  0.1 °C 29.62 in /  1002.9 hPa WSW 13.0 mph /  20.9 km/h 22.0 mph /  35.4 km/h 82 % 0.01 in /  0.25 mm 26 W/m2
06:54 37.0 °F /  2.8 °C 31.4 °F /  -0.3 °C 29.62 in /  1002.9 hPa WSW 13.0 mph /  20.9 km/h 21.0 mph /  33.8 km/h 80 % 0.01 in /  0.25 mm 28 W/m2
06:59 37.4 °F /  3 °C 31.5 °F /  -0.3 °C 29.62 in /  1002.9 hPa WSW 14.0 mph /  22.5 km/h 23.0 mph /  37 km/h 79 % 0.01 in /  0.25 mm 32 W/m2
07:04 37.6 °F /  3.1 °C 31.3 °F /  -0.4 °C 29.62 in /  1002.9 hPa WSW 15.0 mph /  24.1 km/h 23.0 mph /  37 km/h 78 % 0.01 in /  0.25 mm 104 W/m2
07:09 37.9 °F /  3.3 °C 31.7 °F /  -0.2 °C 29.62 in /  1002.9 hPa WSW 15.0 mph /  24.1 km/h 26.0 mph /  41.8 km/h 78 % 0.01 in /  0.25 mm 118 W/m2
07:14 38.1 °F /  3.4 °C 31.9 °F /  -0.1 °C 29.62 in /  1002.9 hPa WSW 15.0 mph /  24.1 km/h 26.0 mph /  41.8 km/h 78 % 0.01 in /  0.25 mm 132 W/m2
07:19 38.5 °F /  3.6 °C 31.9 °F /  -0.1 °C 29.63 in /  1003.3 hPa WSW 15.0 mph /  24.1 km/h 25.0 mph /  40.2 km/h 77 % 0.01 in /  0.25 mm 148 W/m2
07:24 38.7 °F /  3.7 °C 32.1 °F /  0.1 °C 29.63 in /  1003.3 hPa WSW 15.0 mph /  24.1 km/h 26.0 mph /  41.8 km/h 77 % 0.00 in /  0 mm 165 W/m2
07:29 38.7 °F /  3.7 °C 32.1 °F /  0.1 °C 29.63 in /  1003.3 hPa WSW 15.0 mph /  24.1 km/h 27.0 mph /  43.5 km/h 77 % 0.00 in /  0 mm 176 W/m2
07:34 38.8 °F /  3.8 °C 31.9 °F /  -0.1 °C 29.62 in /  1002.9 hPa WSW 16.0 mph /  25.7 km/h 27.0 mph /  43.5 km/h 76 % 0.00 in /  0 mm 192 W/m2
07:39 39.0 °F /  3.9 °C 32.4 °F /  0.2 °C 29.63 in /  1003.3 hPa WSW 16.0 mph /  25.7 km/h 24.0 mph /  38.6 km/h 77 % 0.00 in /  0 mm 206 W/m2
07:44 39.2 °F /  4 °C 32.6 °F /  0.3 °C 29.63 in /  1003.3 hPa WSW 14.0 mph /  22.5 km/h 24.0 mph /  38.6 km/h 77 % 0.00 in /  0 mm 216 W/m2
07:49 39.4 °F /  4.1 °C 32.8 °F /  0.4 °C 29.63 in /  1003.3 hPa WSW 14.0 mph /  22.5 km/h 28.0 mph /  45.1 km/h 77 % 0.00 in /  0 mm 232 W/m2
07:54 39.6 °F /  4.2 °C 32.9 °F /  0.5 °C 29.64 in /  1003.6 hPa West 15.0 mph /  24.1 km/h 28.0 mph /  45.1 km/h 77 % 0.00 in /  0 mm 243 W/m2
07:59 39.7 °F /  4.3 °C 33.1 °F /  0.6 °C 29.64 in /  1003.6 hPa West 14.0 mph /  22.5 km/h 28.0 mph /  45.1 km/h 77 % 0.00 in /  0 mm 258 W/m2
08:04 39.9 °F /  4.4 °C 33.3 °F /  0.7 °C 29.64 in /  1003.6 hPa West 13.0 mph /  20.9 km/h 26.0 mph /  41.8 km/h 77 % 0.00 in /  0 mm 272 W/m2
08:09 40.1 °F /  4.5 °C 33.1 °F /  0.6 °C 29.64 in /  1003.6 hPa West 15.0 mph /  24.1 km/h 28.0 mph /  45.1 km/h 76 % 0.00 in /  0 mm 288 W/m2
08:14 40.3 °F /  4.6 °C 33.0 °F /  0.6 °C 29.64 in /  1003.6 hPa WSW 16.0 mph /  25.7 km/h 28.0 mph /  45.1 km/h 75 % 0.00 in /  0 mm 301 W/m2
08:19 40.3 °F /  4.6 °C 33.0 °F /  0.6 °C 29.64 in /  1003.6 hPa WSW 17.0 mph /  27.4 km/h 26.0 mph /  41.8 km/h 75 % 0.00 in /  0 mm 315 W/m2
08:25 40.5 °F /  4.7 °C 32.8 °F /  0.4 °C 29.64 in /  1003.6 hPa WSW 17.0 mph /  27.4 km/h 29.0 mph /  46.7 km/h 74 % 0.00 in /  0 mm 329 W/m2
08:30 40.6 °F /  4.8 °C 32.7 °F /  0.4 °C 29.64 in /  1003.6 hPa WSW 17.0 mph /  27.4 km/h 29.0 mph /  46.7 km/h 73 % 0.00 in /  0 mm 343 W/m2
08:35 40.8 °F /  4.9 °C 32.8 °F /  0.4 °C 29.64 in /  1003.6 hPa WSW 15.0 mph /  24.1 km/h 28.0 mph /  45.1 km/h 73 % 0.00 in /  0 mm 355 W/m2
08:40 41.0 °F /  5 °C 33.0 °F /  0.6 °C 29.64 in /  1003.6 hPa WSW 15.0 mph /  24.1 km/h 26.0 mph /  41.8 km/h 73 % 0.00 in /  0 mm 369 W/m2
08:45 41.0 °F /  5 °C 32.7 °F /  0.4 °C 29.64 in /  1003.6 hPa WSW 18.0 mph /  29 km/h 29.0 mph /  46.7 km/h 72 % 0.00 in /  0 mm 383 W/m2
08:50 41.2 °F /  5.1 °C 32.5 °F /  0.3 °C 29.64 in /  1003.6 hPa WSW 19.0 mph /  30.6 km/h 29.0 mph /  46.7 km/h 71 % 0.00 in /  0 mm 394 W/m2
08:55 41.4 °F /  5.2 °C 32.3 °F /  0.2 °C 29.64 in /  1003.6 hPa WSW 18.0 mph /  29 km/h 31.0 mph /  49.9 km/h 70 % 0.00 in /  0 mm 406 W/m2
09:00 41.5 °F /  5.3 °C 32.1 °F /  0.1 °C 29.64 in /  1003.6 hPa WSW 18.0 mph /  29 km/h 31.0 mph /  49.9 km/h 69 % 0.00 in /  0 mm 422 W/m2
09:05 41.9 °F /  5.5 °C 32.8 °F /  0.4 °C 29.65 in /  1003.9 hPa WSW 17.0 mph /  27.4 km/h 30.0 mph /  48.3 km/h 70 % 0.00 in /  0 mm 434 W/m2
09:10 42.3 °F /  5.7 °C 32.8 °F /  0.4 °C 29.65 in /  1003.9 hPa WSW 16.0 mph /  25.7 km/h 27.0 mph /  43.5 km/h 69 % 0.00 in /  0 mm 443 W/m2
09:15 42.1 °F /  5.6 °C 32.3 °F /  0.2 °C 29.65 in /  1003.9 hPa WSW 19.0 mph /  30.6 km/h 32.0 mph /  51.5 km/h 68 % 0.00 in /  0 mm 459 W/m2
09:20 42.4 °F /  5.8 °C 32.6 °F /  0.3 °C 29.65 in /  1003.9 hPa WSW 19.0 mph /  30.6 km/h 32.0 mph /  51.5 km/h 68 % 0.00 in /  0 mm 469 W/m2
09:25 42.6 °F /  5.9 °C 32.0 °F /  0 °C 29.65 in /  1003.9 hPa WSW 18.0 mph /  29 km/h 31.0 mph /  49.9 km/h 66 % 0.00 in /  0 mm 475 W/m2
09:30 42.6 °F /  5.9 °C 32.0 °F /  0 °C 29.65 in /  1003.9 hPa West 21.0 mph /  33.8 km/h 31.0 mph /  49.9 km/h 66 % 0.00 in /  0 mm 490 W/m2
09:35 42.8 °F /  6 °C 31.8 °F /  -0.1 °C 29.65 in /  1003.9 hPa West 20.0 mph /  32.2 km/h 30.0 mph /  48.3 km/h 65 % 0.00 in /  0 mm 496 W/m2
09:40 43.0 °F /  6.1 °C 31.6 °F /  -0.2 °C 29.65 in /  1003.9 hPa West 20.0 mph /  32.2 km/h 30.0 mph /  48.3 km/h 64 % 0.00 in /  0 mm 508 W/m2
09:45 43.3 °F /  6.3 °C 32.0 °F /  0 °C 29.66 in /  1004.3 hPa West 19.0 mph /  30.6 km/h 32.0 mph /  51.5 km/h 64 % 0.00 in /  0 mm 522 W/m2
09:50 43.5 °F /  6.4 °C 31.4 °F /  -0.3 °C 29.66 in /  1004.3 hPa WSW 19.0 mph /  30.6 km/h 32.0 mph /  51.5 km/h 62 % 0.00 in /  0 mm 531 W/m2
09:55 43.5 °F /  6.4 °C 31.0 °F /  -0.6 °C 29.66 in /  1004.3 hPa WSW 21.0 mph /  33.8 km/h 32.0 mph /  51.5 km/h 61 % 0.00 in /  0 mm 538 W/m2
10:00 43.7 °F /  6.5 °C 31.5 °F /  -0.3 °C 29.66 in /  1004.3 hPa West 19.0 mph /  30.6 km/h 32.0 mph /  51.5 km/h 62 % 0.00 in /  0 mm 555 W/m2
10:05 44.1 °F /  6.7 °C 31.9 °F /  -0.1 °C 29.66 in /  1004.3 hPa West 18.0 mph /  29 km/h 29.0 mph /  46.7 km/h 62 % 0.00 in /  0 mm 552 W/m2
10:10 44.2 °F /  6.8 °C 31.2 °F /  -0.4 °C 29.66 in /  1004.3 hPa West 17.0 mph /  27.4 km/h 28.0 mph /  45.1 km/h 60 % 0.00 in /  0 mm 563 W/m2
10:15 44.6 °F /  7 °C 32.0 °F /  0 °C 29.66 in /  1004.3 hPa West 17.0 mph /  27.4 km/h 28.0 mph /  45.1 km/h 61 % 0.00 in /  0 mm 589 W/m2
10:20 44.6 °F /  7 °C 32.0 °F /  0 °C 29.66 in /  1004.3 hPa West 17.0 mph /  27.4 km/h 29.0 mph /  46.7 km/h 61 % 0.00 in /  0 mm 547 W/m2
10:25 44.4 °F /  6.9 °C 32.2 °F /  0.1 °C 29.66 in /  1004.3 hPa West 18.0 mph /  29 km/h 29.0 mph /  46.7 km/h 62 % 0.00 in /  0 mm 592 W/m2
10:30 44.4 °F /  6.9 °C 32.6 °F /  0.3 °C 29.66 in /  1004.3 hPa West 17.0 mph /  27.4 km/h 25.0 mph /  40.2 km/h 63 % 0.00 in /  0 mm 606 W/m2
10:35 44.8 °F /  7.1 °C 32.9 °F /  0.5 °C 29.66 in /  1004.3 hPa West 15.0 mph /  24.1 km/h 25.0 mph /  40.2 km/h 63 % 0.00 in /  0 mm 613 W/m2
10:40 45.1 °F /  7.3 °C 32.9 °F /  0.5 °C 29.66 in /  1004.3 hPa West 14.0 mph /  22.5 km/h 27.0 mph /  43.5 km/h 62 % 0.00 in /  0 mm 455 W/m2
10:45 45.1 °F /  7.3 °C 32.5 °F /  0.3 °C 29.66 in /  1004.3 hPa WSW 15.0 mph /  24.1 km/h 27.0 mph /  43.5 km/h 61 % 0.00 in /  0 mm 283 W/m2
10:50 44.2 °F /  6.8 °C 32.8 °F /  0.4 °C 29.66 in /  1004.3 hPa West 16.0 mph /  25.7 km/h 26.0 mph /  41.8 km/h 64 % 0.00 in /  0 mm 118 W/m2
10:55 44.2 °F /  6.8 °C 32.8 °F /  0.4 °C 29.66 in /  1004.3 hPa WSW 15.0 mph /  24.1 km/h 26.0 mph /  41.8 km/h 64 % 0.00 in /  0 mm 703 W/m2
11:00 45.3 °F /  7.4 °C 33.5 °F /  0.8 °C 29.67 in /  1004.6 hPa WSW 15.0 mph /  24.1 km/h 32.0 mph /  51.5 km/h 63 % 0.00 in /  0 mm 707 W/m2
11:05 46.0 °F /  7.8 °C 31.2 °F /  -0.4 °C 29.66 in /  1004.3 hPa WSW 17.0 mph /  27.4 km/h 32.0 mph /  51.5 km/h 56 % 0.00 in /  0 mm 677 W/m2
11:10 46.6 °F /  8.1 °C 31.3 °F /  -0.4 °C 29.66 in /  1004.3 hPa WSW 19.0 mph /  30.6 km/h 31.0 mph /  49.9 km/h 55 % 0.00 in /  0 mm 664 W/m2
11:15 46.6 °F /  8.1 °C 30.3 °F /  -0.9 °C 29.67 in /  1004.6 hPa WSW 19.0 mph /  30.6 km/h 30.0 mph /  48.3 km/h 53 % 0.00 in /  0 mm 680 W/m2
11:20 46.4 °F /  8 °C 30.6 °F /  -0.8 °C 29.66 in /  1004.3 hPa WSW 19.0 mph /  30.6 km/h 30.0 mph /  48.3 km/h 54 % 0.00 in /  0 mm 661 W/m2
11:25 46.2 °F /  7.9 °C 30.0 °F /  -1.1 °C 29.67 in /  1004.6 hPa WSW 20.0 mph /  32.2 km/h 32.0 mph /  51.5 km/h 53 % 0.00 in /  0 mm 657 W/m2
11:30 46.2 °F /  7.9 °C 30.5 °F /  -0.8 °C 29.67 in /  1004.6 hPa WSW 20.0 mph /  32.2 km/h 35.0 mph /  56.3 km/h 54 % 0.00 in /  0 mm 675 W/m2
11:35 46.8 °F /  8.2 °C 32.3 °F /  0.2 °C 29.67 in /  1004.6 hPa WSW 16.0 mph /  25.7 km/h 35.0 mph /  56.3 km/h 57 % 0.00 in /  0 mm 703 W/m2
11:40 47.3 °F /  8.5 °C 31.5 °F /  -0.3 °C 29.67 in /  1004.6 hPa WSW 15.0 mph /  24.1 km/h 25.0 mph /  40.2 km/h 54 % 0.00 in /  0 mm 710 W/m2
11:45 47.5 °F /  8.6 °C 32.6 °F /  0.3 °C 29.67 in /  1004.6 hPa WSW 16.0 mph /  25.7 km/h 28.0 mph /  45.1 km/h 56 % 0.00 in /  0 mm 694 W/m2
11:50 47.8 °F /  8.8 °C 32.9 °F /  0.5 °C 29.67 in /  1004.6 hPa WSW 16.0 mph /  25.7 km/h 31.0 mph /  49.9 km/h 56 % 0.00 in /  0 mm 710 W/m2
11:55 47.8 °F /  8.8 °C 31.5 °F /  -0.3 °C 29.67 in /  1004.6 hPa WSW 16.0 mph /  25.7 km/h 31.0 mph /  49.9 km/h 53 % 0.00 in /  0 mm 684 W/m2
12:00 47.8 °F /  8.8 °C 30.6 °F /  -0.8 °C 29.67 in /  1004.6 hPa WSW 18.0 mph /  29 km/h 29.0 mph /  46.7 km/h 51 % 0.00 in /  0 mm 682 W/m2
12:05 47.8 °F /  8.8 °C 30.1 °F /  -1.1 °C 29.67 in /  1004.6 hPa WSW 19.0 mph /  30.6 km/h 33.0 mph /  53.1 km/h 50 % 0.00 in /  0 mm 682 W/m2
12:06 47.8 °F /  8.8 °C 30.1 °F /  -1.1 °C 29.67 in /  1004.6 hPa WSW 19.0 mph /  30.6 km/h 33.0 mph /  53.1 km/h 50 % 0.00 in /  0 mm 687 W/m2
12:11 47.7 °F /  8.7 °C 30.4 °F /  -0.9 °C 29.67 in /  1004.6 hPa WSW 19.0 mph /  30.6 km/h 33.0 mph /  53.1 km/h 51 % 0.00 in /  0 mm 696 W/m2
12:16 47.5 °F /  8.6 °C 31.6 °F /  -0.2 °C 29.68 in /  1005 hPa WSW 20.0 mph /  32.2 km/h 34.0 mph /  54.7 km/h 54 % 0.00 in /  0 mm 693 W/m2
12:21 47.7 °F /  8.7 °C 30.9 °F /  -0.6 °C 29.67 in /  1004.6 hPa WSW 20.0 mph /  32.2 km/h 34.0 mph /  54.7 km/h 52 % 0.00 in /  0 mm 691 W/m2
12:26 47.8 °F /  8.8 °C 30.1 °F /  -1.1 °C 29.68 in /  1005 hPa WSW 19.0 mph /  30.6 km/h 32.0 mph /  51.5 km/h 50 % 0.00 in /  0 mm 729 W/m2
12:31 48.2 °F /  9 °C 29.9 °F /  -1.2 °C 29.68 in /  1005 hPa WSW 18.0 mph /  29 km/h 31.0 mph /  49.9 km/h 49 % 0.00 in /  0 mm 749 W/m2
12:36 48.7 °F /  9.3 °C 29.9 °F /  -1.2 °C 29.68 in /  1005 hPa WSW 17.0 mph /  27.4 km/h 31.0 mph /  49.9 km/h 48 % 0.00 in /  0 mm 693 W/m2
12:41 48.6 °F /  9.2 °C 29.7 °F /  -1.3 °C 29.68 in /  1005 hPa WSW 17.0 mph /  27.4 km/h 32.0 mph /  51.5 km/h 48 % 0.00 in /  0 mm 744 W/m2
12:44 48.2 °F /  9 °C 29.9 °F /  -1.2 °C 29.68 in /  1005 hPa WSW 20.0 mph /  32.2 km/h 32.0 mph /  51.5 km/h 49 % 0.00 in /  0 mm 715 W/m2
12:49 48.2 °F /  9 °C 30.9 °F /  -0.6 °C 29.68 in /  1005 hPa WSW 19.0 mph /  30.6 km/h 30.0 mph /  48.3 km/h 51 % 0.00 in /  0 mm 728 W/m2
12:59 49.5 °F /  9.7 °C 32.1 °F /  0.1 °C 29.68 in /  1005 hPa West 12.0 mph /  19.3 km/h 22.0 mph /  35.4 km/h 51 % 0.00 in /  0 mm 675 W/m2
13:04 49.5 °F /  9.7 °C 30.6 °F /  -0.8 °C 29.68 in /  1005 hPa WSW 15.0 mph /  24.1 km/h 31.0 mph /  49.9 km/h 48 % 0.00 in /  0 mm 693 W/m2
13:09 49.3 °F /  9.6 °C 30.4 °F /  -0.9 °C 29.68 in /  1005 hPa WSW 17.0 mph /  27.4 km/h 31.0 mph /  49.9 km/h 48 % 0.00 in /  0 mm 693 W/m2
13:14 48.7 °F /  9.3 °C 29.9 °F /  -1.2 °C 29.68 in /  1005 hPa WSW 17.0 mph /  27.4 km/h 31.0 mph /  49.9 km/h 48 % 0.00 in /  0 mm 621 W/m2
13:19 48.6 °F /  9.2 °C 30.2 °F /  -1 °C 29.68 in /  1005 hPa WSW 17.0 mph /  27.4 km/h 31.0 mph /  49.9 km/h 49 % 0.00 in /  0 mm 185 W/m2
13:21 48.6 °F /  9.2 °C 30.7 °F /  -0.7 °C 29.68 in /  1005 hPa WSW 17.0 mph /  27.4 km/h 31.0 mph /  49.9 km/h 50 % 0.00 in /  0 mm 659 W/m2
13:26 48.7 °F /  9.3 °C 30.9 °F /  -0.6 °C 29.68 in /  1005 hPa West 16.0 mph /  25.7 km/h 26.0 mph /  41.8 km/h 50 % 0.00 in /  0 mm 650 W/m2
13:31 49.1 °F /  9.5 °C 30.2 °F /  -1 °C 29.68 in /  1005 hPa WSW 17.0 mph /  27.4 km/h 26.0 mph /  41.8 km/h 48 % 0.00 in /  0 mm 659 W/m2
13:36 49.3 °F /  9.6 °C 29.9 °F /  -1.2 °C 29.68 in /  1005 hPa WSW 17.0 mph /  27.4 km/h 31.0 mph /  49.9 km/h 47 % 0.00 in /  0 mm 668 W/m2
13:41 48.6 °F /  9.2 °C 29.2 °F /  -1.6 °C 29.68 in /  1005 hPa WSW 17.0 mph /  27.4 km/h 31.0 mph /  49.9 km/h 47 % 0.00 in /  0 mm 304 W/m2
13:46 48.4 °F /  9.1 °C 30.1 °F /  -1.1 °C 29.68 in /  1005 hPa WSW 16.0 mph /  25.7 km/h 26.0 mph /  41.8 km/h 49 % 0.00 in /  0 mm 612 W/m2
13:51 48.4 °F /  9.1 °C 29.1 °F /  -1.6 °C 29.69 in /  1005.3 hPa WSW 16.0 mph /  25.7 km/h 29.0 mph /  46.7 km/h 47 % 0.00 in /  0 mm 592 W/m2
13:56 48.6 °F /  9.2 °C 29.7 °F /  -1.3 °C 29.69 in /  1005.3 hPa WSW 15.0 mph /  24.1 km/h 29.0 mph /  46.7 km/h 48 % 0.00 in /  0 mm 580 W/m2
14:01 48.7 °F /  9.3 °C 28.9 °F /  -1.7 °C 29.68 in /  1005 hPa WSW 15.0 mph /  24.1 km/h 27.0 mph /  43.5 km/h 46 % 0.00 in /  0 mm 471 W/m2
14:06 49.1 °F /  9.5 °C 29.2 °F /  -1.6 °C 29.69 in /  1005.3 hPa WSW 15.0 mph /  24.1 km/h 27.0 mph /  43.5 km/h 46 % 0.00 in /  0 mm 615 W/m2
14:11 49.3 °F /  9.6 °C 28.8 °F /  -1.8 °C 29.68 in /  1005 hPa West 15.0 mph /  24.1 km/h 28.0 mph /  45.1 km/h 45 % 0.00 in /  0 mm 578 W/m2
14:12 49.3 °F /  9.6 °C 28.8 °F /  -1.8 °C 29.68 in /  1005 hPa West 14.0 mph /  22.5 km/h 28.0 mph /  45.1 km/h 45 % 0.00 in /  0 mm 578 W/m2
14:17 49.5 °F /  9.7 °C 28.4 °F /  -2 °C 29.69 in /  1005.3 hPa WSW 16.0 mph /  25.7 km/h 33.0 mph /  53.1 km/h 44 % 0.00 in /  0 mm 536 W/m2
14:22 49.1 °F /  9.5 °C 28.1 °F /  -2.2 °C 29.68 in /  1005 hPa WSW 19.0 mph /  30.6 km/h 33.0 mph /  53.1 km/h 44 % 0.00 in /  0 mm 570 W/m2
14:27 48.9 °F /  9.4 °C 28.5 °F /  -1.9 °C 29.68 in /  1005 hPa WSW 19.0 mph /  30.6 km/h 30.0 mph /  48.3 km/h 45 % 0.00 in /  0 mm 536 W/m2
14:32 49.1 °F /  9.5 °C 28.7 °F /  -1.8 °C 29.68 in /  1005 hPa WSW 18.0 mph /  29 km/h 29.0 mph /  46.7 km/h 45 % 0.00 in /  0 mm 557 W/m2
14:37 49.3 °F /  9.6 °C 29.4 °F /  -1.4 °C 29.68 in /  1005 hPa West 17.0 mph /  27.4 km/h 25.0 mph /  40.2 km/h 46 % 0.00 in /  0 mm 520 W/m2
14:42 49.3 °F /  9.6 °C 29.9 °F /  -1.2 °C 29.68 in /  1005 hPa WSW 16.0 mph /  25.7 km/h 27.0 mph /  43.5 km/h 47 % 0.00 in /  0 mm 527 W/m2
14:47 49.3 °F /  9.6 °C 29.9 °F /  -1.2 °C 29.68 in /  1005 hPa WSW 15.0 mph /  24.1 km/h 27.0 mph /  43.5 km/h 47 % 0.00 in /  0 mm 515 W/m2
14:52 48.9 °F /  9.4 °C 29.6 °F /  -1.3 °C 29.68 in /  1005 hPa WSW 14.0 mph /  22.5 km/h 22.0 mph /  35.4 km/h 47 % 0.00 in /  0 mm 105 W/m2
14:57 48.0 °F /  8.9 °C 28.7 °F /  -1.8 °C 29.68 in /  1005 hPa WSW 14.0 mph /  22.5 km/h 26.0 mph /  41.8 km/h 47 % 0.00 in /  0 mm 113 W/m2
15:02 47.5 °F /  8.6 °C 28.2 °F /  -2.1 °C 29.68 in /  1005 hPa WSW 15.0 mph /  24.1 km/h 26.0 mph /  41.8 km/h 47 % 0.00 in /  0 mm 132 W/m2
15:07 47.1 °F /  8.4 °C 28.9 °F /  -1.7 °C 29.68 in /  1005 hPa WSW 13.0 mph /  20.9 km/h 23.0 mph /  37 km/h 49 % 0.00 in /  0 mm 132 W/m2
15:12 46.9 °F /  8.3 °C 28.3 °F /  -2.1 °C 29.68 in /  1005 hPa WSW 14.0 mph /  22.5 km/h 23.0 mph /  37 km/h 48 % 0.00 in /  0 mm 151 W/m2
15:17 46.8 °F /  8.2 °C 28.6 °F /  -1.9 °C 29.68 in /  1005 hPa WSW 14.0 mph /  22.5 km/h 23.0 mph /  37 km/h 49 % 0.00 in /  0 mm 165 W/m2
15:22 46.9 °F /  8.3 °C 28.3 °F /  -2.1 °C 29.68 in /  1005 hPa WSW 13.0 mph /  20.9 km/h 24.0 mph /  38.6 km/h 48 % 0.00 in /  0 mm 185 W/m2
15:27 46.9 °F /  8.3 °C 28.3 °F /  -2.1 °C 29.68 in /  1005 hPa WSW 14.0 mph /  22.5 km/h 24.0 mph /  38.6 km/h 48 % 0.00 in /  0 mm 197 W/m2
15:32 46.9 °F /  8.3 °C 28.8 °F /  -1.8 °C 29.68 in /  1005 hPa WSW 13.0 mph /  20.9 km/h 22.0 mph /  35.4 km/h 49 % 0.00 in /  0 mm 218 W/m2
15:37 47.1 °F /  8.4 °C 29.4 °F /  -1.4 °C 29.68 in /  1005 hPa WSW 13.0 mph /  20.9 km/h 24.0 mph /  38.6 km/h 50 % 0.00 in /  0 mm 214 W/m2
15:42 47.1 °F /  8.4 °C 29.9 °F /  -1.2 °C 29.68 in /  1005 hPa WSW 14.0 mph /  22.5 km/h 24.0 mph /  38.6 km/h 51 % 0.00 in /  0 mm 192 W/m2
15:52 46.9 °F /  8.3 °C 30.2 °F /  -1 °C 29.68 in /  1005 hPa WSW 13.0 mph /  20.9 km/h 24.0 mph /  38.6 km/h 52 % 0.00 in /  0 mm 188 W/m2
15:57 46.9 °F /  8.3 °C 30.7 °F /  -0.7 °C 29.68 in /  1005 hPa WSW 13.0 mph /  20.9 km/h 24.0 mph /  38.6 km/h 53 % 0.00 in /  0 mm 176 W/m2
16:02 46.9 °F /  8.3 °C 30.7 °F /  -0.7 °C 29.68 in /  1005 hPa WSW 12.0 mph /  19.3 km/h 21.0 mph /  33.8 km/h 53 % 0.00 in /  0 mm 179 W/m2
16:07 46.9 °F /  8.3 °C 31.1 °F /  -0.5 °C 29.68 in /  1005 hPa WSW 12.0 mph /  19.3 km/h 21.0 mph /  33.8 km/h 54 % 0.00 in /  0 mm 234 W/m2
16:12 47.1 °F /  8.4 °C 31.3 °F /  -0.4 °C 29.69 in /  1005.3 hPa WSW 12.0 mph /  19.3 km/h 22.0 mph /  35.4 km/h 54 % 0.00 in /  0 mm 220 W/m2
16:17 46.9 °F /  8.3 °C 30.7 °F /  -0.7 °C 29.69 in /  1005.3 hPa WSW 14.0 mph /  22.5 km/h 25.0 mph /  40.2 km/h 53 % 0.00 in /  0 mm 193 W/m2
16:27 46.6 °F /  8.1 °C 30.8 °F /  -0.7 °C 29.69 in /  1005.3 hPa WSW 13.0 mph /  20.9 km/h 23.0 mph /  37 km/h 54 % 0.00 in /  0 mm 220 W/m2
16:32 46.6 °F /  8.1 °C 31.7 °F /  -0.2 °C 29.68 in /  1005 hPa WSW 12.0 mph /  19.3 km/h 22.0 mph /  35.4 km/h 56 % 0.00 in /  0 mm 113 W/m2
16:37 46.2 °F /  7.9 °C 31.4 °F /  -0.3 °C 29.69 in /  1005.3 hPa WSW 12.0 mph /  19.3 km/h 20.0 mph /  32.2 km/h 56 % 0.00 in /  0 mm 100 W/m2
16:42 46.0 °F /  7.8 °C 31.6 °F /  -0.2 °C 29.69 in /  1005.3 hPa WSW 12.0 mph /  19.3 km/h 22.0 mph /  35.4 km/h 57 % 0.00 in /  0 mm 98 W/m2
16:47 45.7 °F /  7.6 °C 32.2 °F /  0.1 °C 29.69 in /  1005.3 hPa SW 12.0 mph /  19.3 km/h 22.0 mph /  35.4 km/h 59 % 0.00 in /  0 mm 88 W/m2
16:52 45.3 °F /  7.4 °C 31.4 °F /  -0.3 °C 29.69 in /  1005.3 hPa SW 13.0 mph /  20.9 km/h 22.0 mph /  35.4 km/h 58 % 0.00 in /  0 mm 114 W/m2
16:57 45.1 °F /  7.3 °C 31.2 °F /  -0.4 °C 29.69 in /  1005.3 hPa SW 13.0 mph /  20.9 km/h 21.0 mph /  33.8 km/h 58 % 0.00 in /  0 mm 111 W/m2
17:02 45.0 °F /  7.2 °C 31.9 °F /  -0.1 °C 29.69 in /  1005.3 hPa SW 11.0 mph /  17.7 km/h 18.0 mph /  29 km/h 60 % 0.00 in /  0 mm 77 W/m2
17:07 45.0 °F /  7.2 °C 32.3 °F /  0.2 °C 29.69 in /  1005.3 hPa SW 9.0 mph /  14.5 km/h 18.0 mph /  29 km/h 61 % 0.00 in /  0 mm 81 W/m2
17:12 44.8 °F /  7.1 °C 32.1 °F /  0.1 °C 29.70 in /  1005.6 hPa SW 10.0 mph /  16.1 km/h 21.0 mph /  33.8 km/h 61 % 0.00 in /  0 mm 83 W/m2
17:17 44.6 °F /  7 °C 32.4 °F /  0.2 °C 29.70 in /  1005.6 hPa SW 11.0 mph /  17.7 km/h 21.0 mph /  33.8 km/h 62 % 0.00 in /  0 mm 83 W/m2
17:22 44.4 °F /  6.9 °C 33.4 °F /  0.8 °C 29.70 in /  1005.6 hPa WSW 11.0 mph /  17.7 km/h 21.0 mph /  33.8 km/h 65 % 0.00 in /  0 mm 69 W/m2
17:27 43.7 °F /  6.5 °C 34.9 °F /  1.6 °C 29.71 in /  1006 hPa WSW 14.0 mph /  22.5 km/h 23.0 mph /  37 km/h 71 % 0.00 in /  0 mm 60 W/m2
17:33 42.8 °F /  6 °C 35.8 °F /  2.1 °C 29.70 in /  1005.6 hPa WSW 13.0 mph /  20.9 km/h 23.0 mph /  37 km/h 76 % 0.00 in /  0 mm 53 W/m2
17:38 42.3 °F /  5.7 °C 35.6 °F /  2 °C 29.70 in /  1005.6 hPa WSW 8.0 mph /  12.9 km/h 16.0 mph /  25.7 km/h 77 % 0.00 in /  0 mm 44 W/m2
17:43 42.1 °F /  5.6 °C 35.4 °F /  1.9 °C 29.70 in /  1005.6 hPa WSW 7.0 mph /  11.3 km/h 12.0 mph /  19.3 km/h 77 % 0.00 in /  0 mm 35 W/m2
17:48 41.9 °F /  5.5 °C 35.2 °F /  1.8 °C 29.70 in /  1005.6 hPa WSW 7.0 mph /  11.3 km/h 13.0 mph /  20.9 km/h 77 % 0.00 in /  0 mm 32 W/m2
17:53 41.7 °F /  5.4 °C 35.0 °F /  1.7 °C 29.71 in /  1006 hPa WSW 7.0 mph /  11.3 km/h 13.0 mph /  20.9 km/h 77 % 0.00 in /  0 mm 19 W/m2
17:58 41.7 °F /  5.4 °C 34.7 °F /  1.5 °C 29.71 in /  1006 hPa WSW 6.0 mph /  9.7 km/h 13.0 mph /  20.9 km/h 76 % 0.00 in /  0 mm 14 W/m2
18:03 41.5 °F /  5.3 °C 34.5 °F /  1.4 °C 29.71 in /  1006 hPa WSW 6.0 mph /  9.7 km/h 11.0 mph /  17.7 km/h 76 % 0.00 in /  0 mm 11 W/m2
18:08 41.5 °F /  5.3 °C 34.5 °F /  1.4 °C 29.71 in /  1006 hPa WSW 6.0 mph /  9.7 km/h 11.0 mph /  17.7 km/h 76 % 0.00 in /  0 mm 9 W/m2
18:13 41.5 °F /  5.3 °C 34.5 °F /  1.4 °C 29.71 in /  1006 hPa WSW 6.0 mph /  9.7 km/h 10.0 mph /  16.1 km/h 76 % 0.00 in /  0 mm 7 W/m2
18:18 41.4 °F /  5.2 °C 34.4 °F /  1.3 °C 29.71 in /  1006 hPa SW 7.0 mph /  11.3 km/h 10.0 mph /  16.1 km/h 76 % 0.00 in /  0 mm 0 W/m2
18:23 41.4 °F /  5.2 °C 34.4 °F /  1.3 °C 29.71 in /  1006 hPa SW 6.0 mph /  9.7 km/h 10.0 mph /  16.1 km/h 76 % 0.00 in /  0 mm 0 W/m2
18:28 41.4 °F /  5.2 °C 34.4 °F /  1.3 °C 29.71 in /  1006 hPa SW 5.0 mph /  8 km/h 9.0 mph /  14.5 km/h 76 % 0.00 in /  0 mm 0 W/m2
18:33 41.4 °F /  5.2 °C 34.4 °F /  1.3 °C 29.71 in /  1006 hPa SW 5.0 mph /  8 km/h 9.0 mph /  14.5 km/h 76 % 0.00 in /  0 mm 0 W/m2
18:38 41.4 °F /  5.2 °C 34.7 °F /  1.5 °C 29.71 in /  1006 hPa SW 5.0 mph /  8 km/h 9.0 mph /  14.5 km/h 77 % 0.00 in /  0 mm 0 W/m2
18:43 41.4 °F /  5.2 °C 34.7 °F /  1.5 °C 29.71 in /  1006 hPa SW 5.0 mph /  8 km/h 9.0 mph /  14.5 km/h 77 % 0.00 in /  0 mm 0 W/m2
18:48 41.4 °F /  5.2 °C 34.7 °F /  1.5 °C 29.71 in /  1006 hPa SW 5.0 mph /  8 km/h 9.0 mph /  14.5 km/h 77 % 0.00 in /  0 mm 0 W/m2
18:53 41.4 °F /  5.2 °C 34.7 °F /  1.5 °C 29.71 in /  1006 hPa SSW 5.0 mph /  8 km/h 8.0 mph /  12.9 km/h 77 % 0.00 in /  0 mm 0 W/m2
18:58 41.4 °F /  5.2 °C 34.4 °F /  1.3 °C 29.71 in /  1006 hPa SSW 5.0 mph /  8 km/h 9.0 mph /  14.5 km/h 76 % 0.00 in /  0 mm 0 W/m2
19:03 41.4 °F /  5.2 °C 34.4 °F /  1.3 °C 29.71 in /  1006 hPa SSW 4.0 mph /  6.4 km/h 9.0 mph /  14.5 km/h 76 % 0.00 in /  0 mm 0 W/m2
19:08 41.4 °F /  5.2 °C 34.4 °F /  1.3 °C 29.70 in /  1005.6 hPa SSW 4.0 mph /  6.4 km/h 12.0 mph /  19.3 km/h 76 % 0.00 in /  0 mm 0 W/m2
19:13 41.5 °F /  5.3 °C 34.5 °F /  1.4 °C 29.70 in /  1005.6 hPa SSW 5.0 mph /  8 km/h 12.0 mph /  19.3 km/h 76 % 0.00 in /  0 mm 0 W/m2
19:18 41.5 °F /  5.3 °C 34.9 °F /  1.6 °C 29.71 in /  1006 hPa SW 4.0 mph /  6.4 km/h 9.0 mph /  14.5 km/h 77 % 0.00 in /  0 mm 0 W/m2
19:23 41.5 °F /  5.3 °C 34.9 °F /  1.6 °C 29.71 in /  1006 hPa SSW 5.0 mph /  8 km/h 11.0 mph /  17.7 km/h 77 % 0.00 in /  0 mm 0 W/m2
19:28 41.4 °F /  5.2 °C 34.7 °F /  1.5 °C 29.71 in /  1006 hPa SSW 4.0 mph /  6.4 km/h 11.0 mph /  17.7 km/h 77 % 0.00 in /  0 mm 0 W/m2
19:33 41.4 °F /  5.2 °C 34.7 °F /  1.5 °C 29.71 in /  1006 hPa SW 3.0 mph /  4.8 km/h 9.0 mph /  14.5 km/h 77 % 0.00 in /  0 mm 0 W/m2
19:38 41.4 °F /  5.2 °C 34.7 °F /  1.5 °C 29.71 in /  1006 hPa SW 3.0 mph /  4.8 km/h 8.0 mph /  12.9 km/h 77 % 0.00 in /  0 mm 0 W/m2
19:43 41.4 °F /  5.2 °C 35.0 °F /  1.7 °C 29.71 in /  1006 hPa South 2.0 mph /  3.2 km/h 6.0 mph /  9.7 km/h 78 % 0.00 in /  0 mm 0 W/m2
19:48 41.4 °F /  5.2 °C 35.0 °F /  1.7 °C 29.71 in /  1006 hPa South 3.0 mph /  4.8 km/h 6.0 mph /  9.7 km/h 78 % 0.00 in /  0 mm 0 W/m2
19:53 41.4 °F /  5.2 °C 35.0 °F /  1.7 °C 29.71 in /  1006 hPa South 4.0 mph /  6.4 km/h 9.0 mph /  14.5 km/h 78 % 0.00 in /  0 mm 0 W/m2
19:58 41.4 °F /  5.2 °C 35.0 °F /  1.7 °C 29.71 in /  1006 hPa South 6.0 mph /  9.7 km/h 12.0 mph /  19.3 km/h 78 % 0.00 in /  0 mm 0 W/m2
20:03 41.4 °F /  5.2 °C 35.3 °F /  1.8 °C 29.71 in /  1006 hPa SSW 8.0 mph /  12.9 km/h 13.0 mph /  20.9 km/h 79 % 0.00 in /  0 mm 0 W/m2
20:08 41.4 °F /  5.2 °C 35.3 °F /  1.8 °C 29.70 in /  1005.6 hPa SSW 10.0 mph /  16.1 km/h 19.0 mph /  30.6 km/h 79 % 0.00 in /  0 mm 0 W/m2
20:13 41.4 °F /  5.2 °C 35.3 °F /  1.8 °C 29.70 in /  1005.6 hPa SSW 11.0 mph /  17.7 km/h 22.0 mph /  35.4 km/h 79 % 0.00 in /  0 mm 0 W/m2
20:18 41.2 °F /  5.1 °C 35.5 °F /  1.9 °C 29.71 in /  1006 hPa SSW 11.0 mph /  17.7 km/h 22.0 mph /  35.4 km/h 80 % 0.00 in /  0 mm 0 W/m2
20:23 41.2 °F /  5.1 °C 35.5 °F /  1.9 °C 29.70 in /  1005.6 hPa SSW 11.0 mph /  17.7 km/h 18.0 mph /  29 km/h 80 % 0.00 in /  0 mm 0 W/m2
20:28 41.2 °F /  5.1 °C 35.5 °F /  1.9 °C 29.70 in /  1005.6 hPa SW 10.0 mph /  16.1 km/h 14.0 mph /  22.5 km/h 80 % 0.00 in /  0 mm 0 W/m2
20:33 41.0 °F /  5 °C 35.3 °F /  1.8 °C 29.70 in /  1005.6 hPa SW 10.0 mph /  16.1 km/h 19.0 mph /  30.6 km/h 80 % 0.00 in /  0 mm 0 W/m2
20:38 41.0 °F /  5 °C 35.6 °F /  2 °C 29.70 in /  1005.6 hPa SSW 11.0 mph /  17.7 km/h 19.0 mph /  30.6 km/h 81 % 0.00 in /  0 mm 0 W/m2
20:43 40.8 °F /  4.9 °C 35.4 °F /  1.9 °C 29.70 in /  1005.6 hPa SSW 8.0 mph /  12.9 km/h 14.0 mph /  22.5 km/h 81 % 0.00 in /  0 mm 0 W/m2
20:48 40.8 °F /  4.9 °C 35.4 °F /  1.9 °C 29.70 in /  1005.6 hPa SSW 6.0 mph /  9.7 km/h 11.0 mph /  17.7 km/h 81 % 0.00 in /  0 mm 0 W/m2
20:53 40.8 °F /  4.9 °C 35.4 °F /  1.9 °C 29.70 in /  1005.6 hPa SW 4.0 mph /  6.4 km/h 11.0 mph /  17.7 km/h 81 % 0.00 in /  0 mm 0 W/m2
20:58 40.8 °F /  4.9 °C 35.7 °F /  2.1 °C 29.70 in /  1005.6 hPa South 3.0 mph /  4.8 km/h 9.0 mph /  14.5 km/h 82 % 0.00 in /  0 mm 0 W/m2
21:03 40.8 °F /  4.9 °C 35.7 °F /  2.1 °C 29.69 in /  1005.3 hPa SE 3.0 mph /  4.8 km/h 9.0 mph /  14.5 km/h 82 % 0.00 in /  0 mm 0 W/m2
21:08 41.0 °F /  5 °C 35.9 °F /  2.2 °C 29.70 in /  1005.6 hPa SE 3.0 mph /  4.8 km/h 9.0 mph /  14.5 km/h 82 % 0.00 in /  0 mm 0 W/m2
21:13 41.2 °F /  5.1 °C 36.1 °F /  2.3 °C 29.70 in /  1005.6 hPa SE 2.0 mph /  3.2 km/h 7.0 mph /  11.3 km/h 82 % 0.00 in /  0 mm 0 W/m2
21:18 41.2 °F /  5.1 °C 36.1 °F /  2.3 °C 29.70 in /  1005.6 hPa SE 2.0 mph /  3.2 km/h 7.0 mph /  11.3 km/h 82 % 0.00 in /  0 mm 0 W/m2
21:23 41.2 °F /  5.1 °C 36.1 °F /  2.3 °C 29.69 in /  1005.3 hPa SSE 3.0 mph /  4.8 km/h 8.0 mph /  12.9 km/h 82 % 0.00 in /  0 mm 0 W/m2
21:28 41.2 °F /  5.1 °C 36.1 °F /  2.3 °C 29.69 in /  1005.3 hPa South 5.0 mph /  8 km/h 10.0 mph /  16.1 km/h 82 % 0.00 in /  0 mm 0 W/m2
21:33 41.2 °F /  5.1 °C 36.1 °F /  2.3 °C 29.69 in /  1005.3 hPa SW 6.0 mph /  9.7 km/h 10.0 mph /  16.1 km/h 82 % 0.00 in /  0 mm 0 W/m2
21:38 41.4 °F /  5.2 °C 36.3 °F /  2.4 °C 29.68 in /  1005 hPa SW 7.0 mph /  11.3 km/h 13.0 mph /  20.9 km/h 82 % 0.00 in /  0 mm 0 W/m2
21:48 41.4 °F /  5.2 °C 36.3 °F /  2.4 °C 29.68 in /  1005 hPa SW 7.0 mph /  11.3 km/h 11.0 mph /  17.7 km/h 82 % 0.00 in /  0 mm 0 W/m2
21:53 41.2 °F /  5.1 °C 36.4 °F /  2.4 °C 29.69 in /  1005.3 hPa SSW 6.0 mph /  9.7 km/h 11.0 mph /  17.7 km/h 83 % 0.00 in /  0 mm 0 W/m2
21:58 41.2 °F /  5.1 °C 36.4 °F /  2.4 °C 29.68 in /  1005 hPa South 5.0 mph /  8 km/h 11.0 mph /  17.7 km/h 83 % 0.00 in /  0 mm 0 W/m2
22:03 41.2 °F /  5.1 °C 36.4 °F /  2.4 °C 29.68 in /  1005 hPa South 4.0 mph /  6.4 km/h 13.0 mph /  20.9 km/h 83 % 0.00 in /  0 mm 0 W/m2
22:08 41.2 °F /  5.1 °C 36.7 °F /  2.6 °C 29.69 in /  1005.3 hPa SSW 7.0 mph /  11.3 km/h 19.0 mph /  30.6 km/h 84 % 0.00 in /  0 mm 0 W/m2
22:13 41.2 °F /  5.1 °C 36.7 °F /  2.6 °C 29.69 in /  1005.3 hPa SSW 10.0 mph /  16.1 km/h 19.0 mph /  30.6 km/h 84 % 0.00 in /  0 mm 0 W/m2
22:18 41.2 °F /  5.1 °C 36.7 °F /  2.6 °C 29.69 in /  1005.3 hPa SW 9.0 mph /  14.5 km/h 16.0 mph /  25.7 km/h 84 % 0.00 in /  0 mm 0 W/m2
22:23 41.2 °F /  5.1 °C 36.7 °F /  2.6 °C 29.69 in /  1005.3 hPa SW 9.0 mph /  14.5 km/h 13.0 mph /  20.9 km/h 84 % 0.00 in /  0 mm 0 W/m2
22:28 41.2 °F /  5.1 °C 36.7 °F /  2.6 °C 29.69 in /  1005.3 hPa SSW 9.0 mph /  14.5 km/h 16.0 mph /  25.7 km/h 84 % 0.00 in /  0 mm 0 W/m2
22:33 41.2 °F /  5.1 °C 36.7 °F /  2.6 °C 29.69 in /  1005.3 hPa SSW 10.0 mph /  16.1 km/h 16.0 mph /  25.7 km/h 84 % 0.00 in /  0 mm 0 W/m2
22:38 41.2 °F /  5.1 °C 36.7 °F /  2.6 °C 29.69 in /  1005.3 hPa SSW 10.0 mph /  16.1 km/h 19.0 mph /  30.6 km/h 84 % 0.00 in /  0 mm 0 W/m2
22:48 41.2 °F /  5.1 °C 37.0 °F /  2.8 °C 29.69 in /  1005.3 hPa SSW 11.0 mph /  17.7 km/h 18.0 mph /  29 km/h 85 % 0.00 in /  0 mm 0 W/m2
22:53 41.2 °F /  5.1 °C 36.7 °F /  2.6 °C 29.69 in /  1005.3 hPa SSW 10.0 mph /  16.1 km/h 18.0 mph /  29 km/h 84 % 0.00 in /  0 mm 0 W/m2
22:58 41.2 °F /  5.1 °C 37.0 °F /  2.8 °C 29.69 in /  1005.3 hPa SSW 10.0 mph /  16.1 km/h 18.0 mph /  29 km/h 85 % 0.00 in /  0 mm 0 W/m2
23:04 41.2 °F /  5.1 °C 37.0 °F /  2.8 °C 29.69 in /  1005.3 hPa SSW 8.0 mph /  12.9 km/h 13.0 mph /  20.9 km/h 85 % 0.00 in /  0 mm 0 W/m2
23:09 41.0 °F /  5 °C 36.8 °F /  2.7 °C 29.69 in /  1005.3 hPa SSW 8.0 mph /  12.9 km/h 13.0 mph /  20.9 km/h 85 % 0.00 in /  0 mm 0 W/m2
23:14 41.0 °F /  5 °C 37.1 °F /  2.8 °C 29.69 in /  1005.3 hPa SSW 8.0 mph /  12.9 km/h 13.0 mph /  20.9 km/h 86 % 0.00 in /  0 mm 0 W/m2
23:19 41.0 °F /  5 °C 37.1 °F /  2.8 °C 29.69 in /  1005.3 hPa SSW 8.0 mph /  12.9 km/h 12.0 mph /  19.3 km/h 86 % 0.00 in /  0 mm 0 W/m2
23:24 40.8 °F /  4.9 °C 37.0 °F /  2.8 °C 29.69 in /  1005.3 hPa SSW 8.0 mph /  12.9 km/h 12.0 mph /  19.3 km/h 86 % 0.00 in /  0 mm 0 W/m2
23:29 40.8 °F /  4.9 °C 37.3 °F /  2.9 °C 29.69 in /  1005.3 hPa SSW 8.0 mph /  12.9 km/h 16.0 mph /  25.7 km/h 87 % 0.00 in /  0 mm 0 W/m2
23:34 40.6 °F /  4.8 °C 37.1 °F /  2.8 °C 29.69 in /  1005.3 hPa SSW 9.0 mph /  14.5 km/h 16.0 mph /  25.7 km/h 87 % 0.00 in /  0 mm 0 W/m2
23:39 40.6 °F /  4.8 °C 37.4 °F /  3 °C 29.69 in /  1005.3 hPa SSW 7.0 mph /  11.3 km/h 14.0 mph /  22.5 km/h 88 % 0.00 in /  0 mm 0 W/m2
23:44 40.5 °F /  4.7 °C 37.2 °F /  2.9 °C 29.69 in /  1005.3 hPa SSW 6.0 mph /  9.7 km/h 14.0 mph /  22.5 km/h 88 % 0.00 in /  0 mm 0 W/m2
23:49 40.5 °F /  4.7 °C 37.5 °F /  3.1 °C 29.69 in /  1005.3 hPa South 5.0 mph /  8 km/h 10.0 mph /  16.1 km/h 89 % 0.00 in /  0 mm 0 W/m2
23:54 40.5 °F /  4.7 °C 37.5 °F /  3.1 °C 29.68 in /  1005 hPa South 5.0 mph /  8 km/h 9.0 mph /  14.5 km/h 89 % 0.01 in /  0.25 mm 0 W/m2
23:59 40.3 °F /  4.6 °C 37.6 °F /  3.1 °C 29.68 in /  1005 hPa SSE 4.0 mph /  6.4 km/h 8.0 mph /  12.9 km/h 90 % 0.01 in /  0.25 mm 0 W/m2
Delerius-Weather
Compliments of Weather Underground - 2.25 mb

Data updates at regular intervals.